sensor_id;sensor_type;location;lat;lon;timestamp;noise_LAeq;noise_LA_min;noise_LA_max;noise_LA01;noise_LA95
81493;Laerm;70900;51.798;10.954;2023-08-21T00:00:29;29.45;26.09;49.32;;
81493;Laerm;70900;51.798;10.954;2023-08-21T00:02:54;31.76;27.19;40.08;;
81493;Laerm;70900;51.798;10.954;2023-08-21T00:05:20;33.39;28.06;40.90;;
81493;Laerm;70900;51.798;10.954;2023-08-21T00:07:45;31.84;28.05;37.89;;
81493;Laerm;70900;51.798;10.954;2023-08-21T00:10:11;34.14;29.11;44.19;;
81493;Laerm;70900;51.798;10.954;2023-08-21T00:12:39;33.01;29.12;40.58;;
81493;Laerm;70900;51.798;10.954;2023-08-21T00:15:04;33.15;27.57;38.49;;
81493;Laerm;70900;51.798;10.954;2023-08-21T00:17:30;37.98;29.59;62.88;;
81493;Laerm;70900;51.798;10.954;2023-08-21T00:19:55;33.02;28.91;38.85;;
81493;Laerm;70900;51.798;10.954;2023-08-21T00:22:20;30.30;26.95;43.32;;
81493;Laerm;70900;51.798;10.954;2023-08-21T00:24:46;34.85;28.93;48.95;;
81493;Laerm;70900;51.798;10.954;2023-08-21T00:27:11;31.96;27.80;48.79;;
81493;Laerm;70900;51.798;10.954;2023-08-21T00:29:36;33.70;29.82;38.43;;
81493;Laerm;70900;51.798;10.954;2023-08-21T00:32:02;34.92;28.33;51.50;;
81493;Laerm;70900;51.798;10.954;2023-08-21T00:34:27;34.13;28.94;39.97;;
81493;Laerm;70900;51.798;10.954;2023-08-21T00:36:52;35.55;30.29;44.14;;
81493;Laerm;70900;51.798;10.954;2023-08-21T00:39:18;32.08;28.21;39.76;;
81493;Laerm;70900;51.798;10.954;2023-08-21T00:41:43;34.18;28.49;41.88;;
81493;Laerm;70900;51.798;10.954;2023-08-21T00:44:09;34.09;28.33;42.39;;
81493;Laerm;70900;51.798;10.954;2023-08-21T00:46:34;30.46;26.95;36.01;;
81493;Laerm;70900;51.798;10.954;2023-08-21T00:48:59;34.87;28.99;41.71;;
81493;Laerm;70900;51.798;10.954;2023-08-21T00:51:25;31.50;28.58;44.82;;
81493;Laerm;70900;51.798;10.954;2023-08-21T00:53:50;29.73;27.45;36.26;;
81493;Laerm;70900;51.798;10.954;2023-08-21T00:56:16;31.86;27.81;41.18;;
81493;Laerm;70900;51.798;10.954;2023-08-21T00:58:41;31.37;28.73;37.29;;
81493;Laerm;70900;51.798;10.954;2023-08-21T01:01:07;32.14;29.28;36.52;;
81493;Laerm;70900;51.798;10.954;2023-08-21T01:06:53;32.09;28.04;42.25;;
81493;Laerm;70900;51.798;10.954;2023-08-21T01:10:09;30.29;27.66;41.25;;
81493;Laerm;70900;51.798;10.954;2023-08-21T01:15:40;33.15;28.62;46.61;;
81493;Laerm;70900;51.798;10.954;2023-08-21T01:18:36;37.10;29.74;57.25;;
81493;Laerm;70900;51.798;10.954;2023-08-21T01:24:29;31.59;28.55;40.92;;
81493;Laerm;70900;51.798;10.954;2023-08-21T01:27:11;31.18;27.33;41.56;;
81493;Laerm;70900;51.798;10.954;2023-08-21T01:29:59;31.80;28.19;42.41;;
81493;Laerm;70900;51.798;10.954;2023-08-21T01:35:51;39.20;29.28;53.18;;
81493;Laerm;70900;51.798;10.954;2023-08-21T01:38:43;32.74;28.21;48.20;;
81493;Laerm;70900;51.798;10.954;2023-08-21T01:41:25;31.18;28.05;42.54;;
81493;Laerm;70900;51.798;10.954;2023-08-21T01:44:24;32.84;29.20;44.75;;
81493;Laerm;70900;51.798;10.954;2023-08-21T01:47:18;33.97;30.06;43.19;;
81493;Laerm;70900;51.798;10.954;2023-08-21T01:50:03;33.35;29.67;38.15;;
81493;Laerm;70900;51.798;10.954;2023-08-21T01:53:00;33.66;29.99;39.73;;
81493;Laerm;70900;51.798;10.954;2023-08-21T01:55:54;33.20;29.55;42.07;;
81493;Laerm;70900;51.798;10.954;2023-08-21T01:58:43;32.59;29.03;43.19;;
81493;Laerm;70900;51.798;10.954;2023-08-21T02:01:23;33.67;28.97;42.01;;
81493;Laerm;70900;51.798;10.954;2023-08-21T02:04:20;35.17;27.90;43.11;;
81493;Laerm;70900;51.798;10.954;2023-08-21T02:07:12;31.69;27.95;44.57;;
81493;Laerm;70900;51.798;10.954;2023-08-21T02:09:58;32.59;28.61;47.55;;
81493;Laerm;70900;51.798;10.954;2023-08-21T02:15:41;33.82;31.14;38.95;;
81493;Laerm;70900;51.798;10.954;2023-08-21T02:18:32;32.50;28.97;38.75;;
81493;Laerm;70900;51.798;10.954;2023-08-21T02:21:31;32.34;29.39;39.60;;
81493;Laerm;70900;51.798;10.954;2023-08-21T02:27:10;33.11;27.52;45.43;;
81493;Laerm;70900;51.798;10.954;2023-08-21T02:30:01;31.11;28.28;36.74;;
81493;Laerm;70900;51.798;10.954;2023-08-21T02:32:50;31.06;28.13;41.79;;
81493;Laerm;70900;51.798;10.954;2023-08-21T02:35:46;31.27;28.62;37.27;;
81493;Laerm;70900;51.798;10.954;2023-08-21T02:38:36;30.57;27.70;35.88;;
81493;Laerm;70900;51.798;10.954;2023-08-21T02:41:24;32.04;27.66;44.78;;
81493;Laerm;70900;51.798;10.954;2023-08-21T02:44:03;33.91;28.28;45.54;;
81493;Laerm;70900;51.798;10.954;2023-08-21T02:47:00;31.33;27.41;42.36;;
81493;Laerm;70900;51.798;10.954;2023-08-21T02:49:41;30.64;28.18;38.12;;
81493;Laerm;70900;51.798;10.954;2023-08-21T02:52:20;31.19;27.63;46.03;;
81493;Laerm;70900;51.798;10.954;2023-08-21T02:55:13;42.75;28.78;58.60;;
81493;Laerm;70900;51.798;10.954;2023-08-21T02:57:54;31.82;28.09;42.03;;
81493;Laerm;70900;51.798;10.954;2023-08-21T03:00:39;29.90;26.34;41.59;;
81493;Laerm;70900;51.798;10.954;2023-08-21T03:03:25;31.61;28.16;47.11;;
81493;Laerm;70900;51.798;10.954;2023-08-21T03:06:06;33.96;28.65;54.12;;
81493;Laerm;70900;51.798;10.954;2023-08-21T03:08:47;33.42;30.38;39.95;;
81493;Laerm;70900;51.798;10.954;2023-08-21T03:11:42;32.29;29.17;38.34;;
81493;Laerm;70900;51.798;10.954;2023-08-21T03:14:26;36.76;28.57;49.94;;
81493;Laerm;70900;51.798;10.954;2023-08-21T03:17:10;30.89;27.55;36.59;;
81493;Laerm;70900;51.798;10.954;2023-08-21T03:19:57;33.13;28.36;49.07;;
81493;Laerm;70900;51.798;10.954;2023-08-21T03:22:35;50.95;29.47;65.49;;
81493;Laerm;70900;51.798;10.954;2023-08-21T03:25:16;33.10;30.52;39.37;;
81493;Laerm;70900;51.798;10.954;2023-08-21T03:28:08;51.25;30.56;68.95;;
81493;Laerm;70900;51.798;10.954;2023-08-21T03:30:48;41.49;30.37;54.97;;
81493;Laerm;70900;51.798;10.954;2023-08-21T03:33:39;35.60;30.73;47.09;;
81493;Laerm;70900;51.798;10.954;2023-08-21T03:36:27;33.78;31.33;43.34;;
81493;Laerm;70900;51.798;10.954;2023-08-21T03:39:16;37.36;32.68;48.32;;
81493;Laerm;70900;51.798;10.954;2023-08-21T03:44:53;47.61;33.44;62.99;;
81493;Laerm;70900;51.798;10.954;2023-08-21T03:47:58;44.87;32.43;60.47;;
81493;Laerm;70900;51.798;10.954;2023-08-21T03:50:46;35.02;31.77;41.08;;
81493;Laerm;70900;51.798;10.954;2023-08-21T03:56:39;53.05;32.51;69.71;;
81493;Laerm;70900;51.798;10.954;2023-08-21T03:59:21;52.58;33.27;65.56;;
81493;Laerm;70900;51.798;10.954;2023-08-21T04:02:04;51.27;34.62;64.33;;
81493;Laerm;70900;51.798;10.954;2023-08-21T04:05:01;54.03;34.25;70.89;;
81493;Laerm;70900;51.798;10.954;2023-08-21T04:07:49;49.18;36.63;61.62;;
81493;Laerm;70900;51.798;10.954;2023-08-21T04:10:52;54.10;37.48;68.09;;
81493;Laerm;70900;51.798;10.954;2023-08-21T04:13:33;49.70;35.58;65.73;;
81493;Laerm;70900;51.798;10.954;2023-08-21T04:16:29;48.38;35.93;62.61;;
81493;Laerm;70900;51.798;10.954;2023-08-21T04:19:17;53.98;35.47;68.49;;
81493;Laerm;70900;51.798;10.954;2023-08-21T04:22:04;52.75;35.59;71.84;;
81493;Laerm;70900;51.798;10.954;2023-08-21T04:25:00;56.73;35.52;76.56;;
81493;Laerm;70900;51.798;10.954;2023-08-21T04:28:00;51.65;36.45;64.25;;
81493;Laerm;70900;51.798;10.954;2023-08-21T04:30:48;60.29;35.46;77.91;;
81493;Laerm;70900;51.798;10.954;2023-08-21T04:33:51;58.15;35.18;77.21;;
81493;Laerm;70900;51.798;10.954;2023-08-21T04:36:40;53.83;34.04;70.98;;
81493;Laerm;70900;51.798;10.954;2023-08-21T04:42:23;48.41;34.46;63.80;;
81493;Laerm;70900;51.798;10.954;2023-08-21T04:45:08;53.46;35.27;69.45;;
81493;Laerm;70900;51.798;10.954;2023-08-21T04:48:09;58.49;35.30;79.26;;
81493;Laerm;70900;51.798;10.954;2023-08-21T04:51:04;48.20;35.00;63.11;;
81493;Laerm;70900;51.798;10.954;2023-08-21T04:54:00;52.95;38.13;64.49;;
81493;Laerm;70900;51.798;10.954;2023-08-21T04:56:59;56.92;37.63;73.58;;
81493;Laerm;70900;51.798;10.954;2023-08-21T04:59:47;54.21;37.50;68.33;;
81493;Laerm;70900;51.798;10.954;2023-08-21T05:02:37;55.30;36.80;68.33;;
81493;Laerm;70900;51.798;10.954;2023-08-21T05:05:29;53.94;35.94;66.88;;
81493;Laerm;70900;51.798;10.954;2023-08-21T05:08:31;55.86;35.28;67.29;;
81493;Laerm;70900;51.798;10.954;2023-08-21T05:11:23;53.40;33.76;65.58;;
81493;Laerm;70900;51.798;10.954;2023-08-21T05:14:17;53.69;35.30;64.34;;
81493;Laerm;70900;51.798;10.954;2023-08-21T05:17:15;53.03;37.16;65.99;;
81493;Laerm;70900;51.798;10.954;2023-08-21T05:20:03;56.37;37.72;72.56;;
81493;Laerm;70900;51.798;10.954;2023-08-21T05:22:57;80.40;37.90;101.49;;
81493;Laerm;70900;51.798;10.954;2023-08-21T05:25:51;69.03;40.59;84.52;;
81493;Laerm;70900;51.798;10.954;2023-08-21T05:28:41;65.40;37.36;83.23;;
81493;Laerm;70900;51.798;10.954;2023-08-21T05:31:37;59.16;38.79;66.38;;
81493;Laerm;70900;51.798;10.954;2023-08-21T05:34:37;58.80;36.43;73.99;;
81493;Laerm;70900;51.798;10.954;2023-08-21T05:37:26;57.69;36.67;72.06;;
81493;Laerm;70900;51.798;10.954;2023-08-21T05:40:14;54.46;35.68;66.78;;
81493;Laerm;70900;51.798;10.954;2023-08-21T05:43:06;54.42;36.75;65.52;;
81493;Laerm;70900;51.798;10.954;2023-08-21T05:45:54;51.35;36.83;65.70;;
81493;Laerm;70900;51.798;10.954;2023-08-21T05:48:46;56.03;39.17;67.99;;
81493;Laerm;70900;51.798;10.954;2023-08-21T05:51:44;54.01;36.00;66.45;;
81493;Laerm;70900;51.798;10.954;2023-08-21T05:54:37;54.03;35.92;68.49;;
81493;Laerm;70900;51.798;10.954;2023-08-21T05:57:26;54.62;37.01;67.02;;
81493;Laerm;70900;51.798;10.954;2023-08-21T06:00:10;62.28;36.18;78.66;;
81493;Laerm;70900;51.798;10.954;2023-08-21T06:02:59;52.61;34.72;68.95;;
81493;Laerm;70900;51.798;10.954;2023-08-21T06:05:52;54.33;34.45;65.49;;
81493;Laerm;70900;51.798;10.954;2023-08-21T06:08:55;53.19;35.30;67.74;;
81493;Laerm;70900;51.798;10.954;2023-08-21T06:11:53;54.97;35.33;69.70;;
81493;Laerm;70900;51.798;10.954;2023-08-21T06:14:52;53.99;37.10;68.21;;
81493;Laerm;70900;51.798;10.954;2023-08-21T06:17:46;47.36;35.38;61.46;;
81493;Laerm;70900;51.798;10.954;2023-08-21T06:20:28;52.93;35.14;68.76;;
81493;Laerm;70900;51.798;10.954;2023-08-21T06:23:16;51.64;34.68;65.73;;
81493;Laerm;70900;51.798;10.954;2023-08-21T06:26:03;52.59;33.31;66.57;;
81493;Laerm;70900;51.798;10.954;2023-08-21T06:28:44;52.87;34.81;64.97;;
81493;Laerm;70900;51.798;10.954;2023-08-21T06:31:41;41.65;34.38;56.77;;
81493;Laerm;70900;51.798;10.954;2023-08-21T06:37:25;55.11;34.81;67.34;;
81493;Laerm;70900;51.798;10.954;2023-08-21T06:40:35;53.85;36.03;70.69;;
81493;Laerm;70900;51.798;10.954;2023-08-21T06:43:22;54.33;35.92;66.21;;
81493;Laerm;70900;51.798;10.954;2023-08-21T06:49:06;55.67;35.27;67.28;;
81493;Laerm;70900;51.798;10.954;2023-08-21T06:54:52;54.94;33.77;67.00;;
81493;Laerm;70900;51.798;10.954;2023-08-21T06:57:23;55.23;34.67;66.27;;
81493;Laerm;70900;51.798;10.954;2023-08-21T06:59:49;60.27;34.16;77.20;;
81493;Laerm;70900;51.798;10.954;2023-08-21T07:02:14;50.71;34.65;65.52;;
81493;Laerm;70900;51.798;10.954;2023-08-21T07:04:39;54.68;36.36;68.16;;
81493;Laerm;70900;51.798;10.954;2023-08-21T07:07:05;44.77;33.95;61.35;;
81493;Laerm;70900;51.798;10.954;2023-08-21T07:09:30;59.80;35.15;76.70;;
81493;Laerm;70900;51.798;10.954;2023-08-21T07:11:56;47.31;36.31;61.13;;
81493;Laerm;70900;51.798;10.954;2023-08-21T07:14:21;52.60;36.62;65.21;;
81493;Laerm;70900;51.798;10.954;2023-08-21T07:16:47;63.97;33.53;81.43;;
81493;Laerm;70900;51.798;10.954;2023-08-21T07:19:12;47.44;33.09;63.93;;
81493;Laerm;70900;51.798;10.954;2023-08-21T07:21:38;58.60;36.17;77.42;;
81493;Laerm;70900;51.798;10.954;2023-08-21T07:24:03;52.61;35.36;63.69;;
81493;Laerm;70900;51.798;10.954;2023-08-21T07:26:29;55.49;35.39;69.58;;
81493;Laerm;70900;51.798;10.954;2023-08-21T07:28:54;52.70;35.02;67.14;;
81493;Laerm;70900;51.798;10.954;2023-08-21T07:31:20;57.05;35.87;74.74;;
81493;Laerm;70900;51.798;10.954;2023-08-21T07:33:45;55.46;34.74;70.46;;
81493;Laerm;70900;51.798;10.954;2023-08-21T07:36:11;54.41;40.03;64.51;;
81493;Laerm;70900;51.798;10.954;2023-08-21T07:38:41;52.40;35.66;68.34;;
81493;Laerm;70900;51.798;10.954;2023-08-21T07:41:07;53.48;36.39;68.10;;
81493;Laerm;70900;51.798;10.954;2023-08-21T07:43:35;50.79;38.12;63.09;;
81493;Laerm;70900;51.798;10.954;2023-08-21T07:46:04;55.77;38.88;72.94;;
81493;Laerm;70900;51.798;10.954;2023-08-21T07:48:29;51.07;40.09;63.47;;
81493;Laerm;70900;51.798;10.954;2023-08-21T07:50:55;54.50;38.78;65.92;;
81493;Laerm;70900;51.798;10.954;2023-08-21T07:53:21;56.10;38.95;72.57;;
81493;Laerm;70900;51.798;10.954;2023-08-21T07:55:46;56.94;42.03;66.27;;
81493;Laerm;70900;51.798;10.954;2023-08-21T07:58:12;55.02;37.32;68.83;;
81493;Laerm;70900;51.798;10.954;2023-08-21T08:00:38;55.78;37.79;67.74;;
81493;Laerm;70900;51.798;10.954;2023-08-21T08:03:04;51.03;37.48;62.60;;
81493;Laerm;70900;51.798;10.954;2023-08-21T08:05:29;55.04;40.87;63.51;;
81493;Laerm;70900;51.798;10.954;2023-08-21T08:07:54;60.91;38.58;80.67;;
81493;Laerm;70900;51.798;10.954;2023-08-21T08:10:20;56.87;39.93;69.28;;
81493;Laerm;70900;51.798;10.954;2023-08-21T08:12:45;59.04;41.88;71.79;;
81493;Laerm;70900;51.798;10.954;2023-08-21T08:15:10;54.48;37.86;67.07;;
81493;Laerm;70900;51.798;10.954;2023-08-21T08:17:36;55.68;39.93;69.41;;
81493;Laerm;70900;51.798;10.954;2023-08-21T08:20:01;54.40;40.11;65.93;;
81493;Laerm;70900;51.798;10.954;2023-08-21T08:22:27;64.27;42.19;79.94;;
81493;Laerm;70900;51.798;10.954;2023-08-21T08:24:52;62.52;41.09;80.48;;
81493;Laerm;70900;51.798;10.954;2023-08-21T08:27:17;62.41;40.61;79.20;;
81493;Laerm;70900;51.798;10.954;2023-08-21T08:29:43;56.24;42.84;66.81;;
81493;Laerm;70900;51.798;10.954;2023-08-21T08:32:08;56.04;41.40;70.07;;
81493;Laerm;70900;51.798;10.954;2023-08-21T08:34:34;59.25;38.85;73.90;;
81493;Laerm;70900;51.798;10.954;2023-08-21T08:36:59;50.36;38.20;61.80;;
81493;Laerm;70900;51.798;10.954;2023-08-21T08:39:24;56.17;38.91;74.15;;
81493;Laerm;70900;51.798;10.954;2023-08-21T08:41:54;54.76;37.03;69.96;;
81493;Laerm;70900;51.798;10.954;2023-08-21T08:44:21;54.19;37.34;68.61;;
81493;Laerm;70900;51.798;10.954;2023-08-21T08:46:49;56.07;38.63;65.97;;
81493;Laerm;70900;51.798;10.954;2023-08-21T08:49:16;55.17;41.58;66.05;;
81493;Laerm;70900;51.798;10.954;2023-08-21T08:51:41;56.34;41.84;65.33;;
81493;Laerm;70900;51.798;10.954;2023-08-21T08:54:08;53.88;39.22;68.98;;
81493;Laerm;70900;51.798;10.954;2023-08-21T08:56:34;53.46;39.82;63.36;;
81493;Laerm;70900;51.798;10.954;2023-08-21T08:58:59;55.00;42.08;71.64;;
81493;Laerm;70900;51.798;10.954;2023-08-21T09:01:25;49.94;40.32;62.42;;
81493;Laerm;70900;51.798;10.954;2023-08-21T09:03:50;44.04;40.21;53.91;;
81493;Laerm;70900;51.798;10.954;2023-08-21T09:06:16;54.78;39.56;67.14;;
81493;Laerm;70900;51.798;10.954;2023-08-21T09:08:56;54.57;39.19;66.74;;
81493;Laerm;70900;51.798;10.954;2023-08-21T09:11:22;55.36;39.04;65.25;;
81493;Laerm;70900;51.798;10.954;2023-08-21T09:13:49;52.52;40.84;67.70;;
81493;Laerm;70900;51.798;10.954;2023-08-21T09:16:15;52.49;41.09;64.06;;
81493;Laerm;70900;51.798;10.954;2023-08-21T09:18:51;54.67;41.58;65.86;;
81493;Laerm;70900;51.798;10.954;2023-08-21T09:21:21;56.82;40.47;72.00;;
81493;Laerm;70900;51.798;10.954;2023-08-21T09:23:46;54.49;44.19;65.33;;
81493;Laerm;70900;51.798;10.954;2023-08-21T09:26:22;56.33;41.88;66.52;;
81493;Laerm;70900;51.798;10.954;2023-08-21T09:28:48;49.94;41.64;64.19;;
81493;Laerm;70900;51.798;10.954;2023-08-21T09:31:14;55.45;41.06;70.13;;
81493;Laerm;70900;51.798;10.954;2023-08-21T09:33:39;55.87;40.89;66.66;;
81493;Laerm;70900;51.798;10.954;2023-08-21T09:36:05;59.24;46.32;70.44;;
81493;Laerm;70900;51.798;10.954;2023-08-21T09:38:30;53.11;42.55;63.93;;
81493;Laerm;70900;51.798;10.954;2023-08-21T09:40:56;58.59;41.13;75.08;;
81493;Laerm;70900;51.798;10.954;2023-08-21T09:43:22;55.67;42.95;72.48;;
81493;Laerm;70900;51.798;10.954;2023-08-21T09:45:49;61.60;42.76;78.71;;
81493;Laerm;70900;51.798;10.954;2023-08-21T09:48:15;51.60;41.49;66.10;;
81493;Laerm;70900;51.798;10.954;2023-08-21T09:50:41;49.18;39.86;60.94;;
81493;Laerm;70900;51.798;10.954;2023-08-21T09:53:07;53.54;40.09;65.35;;
81493;Laerm;70900;51.798;10.954;2023-08-21T09:55:33;57.66;37.84;69.26;;
81493;Laerm;70900;51.798;10.954;2023-08-21T09:57:59;55.18;37.47;69.64;;
81493;Laerm;70900;51.798;10.954;2023-08-21T10:00:31;55.67;42.12;69.55;;
81493;Laerm;70900;51.798;10.954;2023-08-21T10:03:06;52.41;39.96;64.67;;
81493;Laerm;70900;51.798;10.954;2023-08-21T10:05:36;53.70;40.19;66.07;;
81493;Laerm;70900;51.798;10.954;2023-08-21T10:08:03;52.60;38.07;64.52;;
81493;Laerm;70900;51.798;10.954;2023-08-21T10:10:29;56.31;43.05;68.76;;
81493;Laerm;70900;51.798;10.954;2023-08-21T10:12:56;54.07;38.77;65.81;;
81493;Laerm;70900;51.798;10.954;2023-08-21T10:15:21;55.60;39.58;69.18;;
81493;Laerm;70900;51.798;10.954;2023-08-21T10:17:47;57.73;40.72;68.31;;
81493;Laerm;70900;51.798;10.954;2023-08-21T10:20:12;58.19;41.59;70.18;;
81493;Laerm;70900;51.798;10.954;2023-08-21T10:22:45;58.71;38.54;73.83;;
81493;Laerm;70900;51.798;10.954;2023-08-21T10:25:17;57.11;38.03;68.08;;
81493;Laerm;70900;51.798;10.954;2023-08-21T10:27:44;55.50;40.53;66.95;;
81493;Laerm;70900;51.798;10.954;2023-08-21T10:30:13;46.52;39.16;58.17;;
81493;Laerm;70900;51.798;10.954;2023-08-21T10:32:49;51.15;36.81;62.88;;
81493;Laerm;70900;51.798;10.954;2023-08-21T10:35:17;58.98;39.95;75.10;;
81493;Laerm;70900;51.798;10.954;2023-08-21T10:40:26;53.43;39.87;68.58;;
81493;Laerm;70900;51.798;10.954;2023-08-21T10:42:53;51.43;41.83;62.63;;
81493;Laerm;70900;51.798;10.954;2023-08-21T10:45:19;53.67;41.84;64.26;;
81493;Laerm;70900;51.798;10.954;2023-08-21T10:47:44;58.84;42.44;66.37;;
81493;Laerm;70900;51.798;10.954;2023-08-21T10:50:13;62.41;43.37;78.21;;
81493;Laerm;70900;51.798;10.954;2023-08-21T10:52:41;58.31;44.52;73.11;;
81493;Laerm;70900;51.798;10.954;2023-08-21T10:55:13;58.62;41.64;77.06;;
81493;Laerm;70900;51.798;10.954;2023-08-21T10:57:38;53.96;41.44;65.55;;
81493;Laerm;70900;51.798;10.954;2023-08-21T11:02:30;57.69;40.22;68.89;;
81493;Laerm;70900;51.798;10.954;2023-08-21T11:04:55;60.67;41.37;79.43;;
81493;Laerm;70900;51.798;10.954;2023-08-21T11:07:24;53.47;38.97;67.88;;
81493;Laerm;70900;51.798;10.954;2023-08-21T11:09:50;55.16;41.92;65.10;;
81493;Laerm;70900;51.798;10.954;2023-08-21T11:12:16;52.72;36.76;65.76;;
81493;Laerm;70900;51.798;10.954;2023-08-21T11:14:42;53.75;37.24;67.55;;
81493;Laerm;70900;51.798;10.954;2023-08-21T11:17:08;52.72;36.49;67.99;;
81493;Laerm;70900;51.798;10.954;2023-08-21T11:19:34;56.16;37.90;67.02;;
81493;Laerm;70900;51.798;10.954;2023-08-21T11:22:00;54.64;38.78;65.82;;
81493;Laerm;70900;51.798;10.954;2023-08-21T11:27:06;54.53;38.31;67.66;;
81493;Laerm;70900;51.798;10.954;2023-08-21T11:29:32;55.44;39.01;65.36;;
81493;Laerm;70900;51.798;10.954;2023-08-21T11:32:01;56.99;40.78;73.37;;
81493;Laerm;70900;51.798;10.954;2023-08-21T11:34:28;56.20;38.39;70.85;;
81493;Laerm;70900;51.798;10.954;2023-08-21T11:36:53;53.53;37.31;65.84;;
81493;Laerm;70900;51.798;10.954;2023-08-21T11:39:19;52.62;38.76;69.96;;
81493;Laerm;70900;51.798;10.954;2023-08-21T11:41:54;56.14;39.23;74.25;;
81493;Laerm;70900;51.798;10.954;2023-08-21T11:44:19;60.98;40.09;84.60;;
81493;Laerm;70900;51.798;10.954;2023-08-21T11:46:45;52.47;39.42;67.56;;
81493;Laerm;70900;51.798;10.954;2023-08-21T11:49:10;58.02;39.56;71.41;;
81493;Laerm;70900;51.798;10.954;2023-08-21T11:51:39;61.49;38.96;77.06;;
81493;Laerm;70900;51.798;10.954;2023-08-21T11:54:04;60.19;38.55;79.16;;
81493;Laerm;70900;51.798;10.954;2023-08-21T11:56:30;62.31;39.63;78.03;;
81493;Laerm;70900;51.798;10.954;2023-08-21T11:58:56;55.48;37.54;70.09;;
81493;Laerm;70900;51.798;10.954;2023-08-21T12:01:24;53.20;39.81;65.49;;
81493;Laerm;70900;51.798;10.954;2023-08-21T12:03:49;56.84;42.24;67.46;;
81493;Laerm;70900;51.798;10.954;2023-08-21T12:06:21;55.88;40.35;67.34;;
81493;Laerm;70900;51.798;10.954;2023-08-21T12:08:47;50.16;37.27;65.47;;
81493;Laerm;70900;51.798;10.954;2023-08-21T12:11:12;51.76;37.72;68.36;;
81493;Laerm;70900;51.798;10.954;2023-08-21T12:13:38;52.82;38.10;64.42;;
81493;Laerm;70900;51.798;10.954;2023-08-21T12:16:03;53.24;38.90;66.61;;
81493;Laerm;70900;51.798;10.954;2023-08-21T12:18:29;53.97;38.97;67.88;;
81493;Laerm;70900;51.798;10.954;2023-08-21T12:20:54;40.80;34.65;52.94;;
81493;Laerm;70900;51.798;10.954;2023-08-21T12:23:19;55.74;34.88;71.83;;
81493;Laerm;70900;51.798;10.954;2023-08-21T12:25:45;56.03;37.15;65.93;;
81493;Laerm;70900;51.798;10.954;2023-08-21T12:28:11;56.05;36.28;68.60;;
81493;Laerm;70900;51.798;10.954;2023-08-21T12:30:36;59.94;38.00;79.23;;
81493;Laerm;70900;51.798;10.954;2023-08-21T12:33:02;61.65;37.65;76.96;;
81493;Laerm;70900;51.798;10.954;2023-08-21T12:35:27;50.04;37.37;61.65;;
81493;Laerm;70900;51.798;10.954;2023-08-21T12:37:56;48.43;36.42;62.83;;
81493;Laerm;70900;51.798;10.954;2023-08-21T12:40:22;51.87;35.12;67.87;;
81493;Laerm;70900;51.798;10.954;2023-08-21T12:42:47;54.92;35.85;67.69;;
81493;Laerm;70900;51.798;10.954;2023-08-21T12:45:12;54.83;34.09;70.20;;
81493;Laerm;70900;51.798;10.954;2023-08-21T12:47:38;37.76;33.40;52.77;;
81493;Laerm;70900;51.798;10.954;2023-08-21T12:50:03;53.73;34.08;64.40;;
81493;Laerm;70900;51.798;10.954;2023-08-21T12:52:29;56.09;35.75;66.40;;
81493;Laerm;70900;51.798;10.954;2023-08-21T12:54:54;53.65;36.12;65.95;;
81493;Laerm;70900;51.798;10.954;2023-08-21T12:57:19;51.95;37.49;64.74;;
81493;Laerm;70900;51.798;10.954;2023-08-21T12:59:45;52.34;38.27;66.64;;
81493;Laerm;70900;51.798;10.954;2023-08-21T13:02:13;57.30;38.26;67.36;;
81493;Laerm;70900;51.798;10.954;2023-08-21T13:04:38;50.78;37.53;64.14;;
81493;Laerm;70900;51.798;10.954;2023-08-21T13:07:04;55.16;41.75;66.25;;
81493;Laerm;70900;51.798;10.954;2023-08-21T13:09:29;55.98;38.96;66.04;;
81493;Laerm;70900;51.798;10.954;2023-08-21T13:11:55;56.39;42.38;70.09;;
81493;Laerm;70900;51.798;10.954;2023-08-21T13:14:20;57.45;39.20;69.75;;
81493;Laerm;70900;51.798;10.954;2023-08-21T13:16:45;55.94;37.89;68.40;;
81493;Laerm;70900;51.798;10.954;2023-08-21T13:19:11;50.45;36.06;66.08;;
81493;Laerm;70900;51.798;10.954;2023-08-21T13:21:36;55.95;37.63;66.69;;
81493;Laerm;70900;51.798;10.954;2023-08-21T13:24:02;59.82;41.67;70.36;;
81493;Laerm;70900;51.798;10.954;2023-08-21T13:26:27;58.06;40.40;70.98;;
81493;Laerm;70900;51.798;10.954;2023-08-21T13:28:54;53.58;36.98;67.63;;
81493;Laerm;70900;51.798;10.954;2023-08-21T13:31:20;60.63;39.10;75.30;;
81493;Laerm;70900;51.798;10.954;2023-08-21T13:33:48;57.69;41.75;71.00;;
81493;Laerm;70900;51.798;10.954;2023-08-21T13:36:14;52.30;37.58;67.13;;
81493;Laerm;70900;51.798;10.954;2023-08-21T13:38:40;56.66;40.73;72.30;;
81493;Laerm;70900;51.798;10.954;2023-08-21T13:41:06;50.96;39.50;65.17;;
81493;Laerm;70900;51.798;10.954;2023-08-21T13:43:31;52.85;38.25;66.08;;
81493;Laerm;70900;51.798;10.954;2023-08-21T13:45:57;54.18;39.91;71.15;;
81493;Laerm;70900;51.798;10.954;2023-08-21T13:48:22;54.40;37.74;67.82;;
81493;Laerm;70900;51.798;10.954;2023-08-21T13:50:47;55.09;41.24;65.82;;
81493;Laerm;70900;51.798;10.954;2023-08-21T13:53:13;56.68;40.41;71.91;;
81493;Laerm;70900;51.798;10.954;2023-08-21T13:55:38;53.71;36.71;65.81;;
81493;Laerm;70900;51.798;10.954;2023-08-21T13:58:03;56.16;36.47;67.82;;
81493;Laerm;70900;51.798;10.954;2023-08-21T14:00:29;53.89;38.13;65.53;;
81493;Laerm;70900;51.798;10.954;2023-08-21T14:02:54;53.44;36.31;67.98;;
81493;Laerm;70900;51.798;10.954;2023-08-21T14:05:20;56.47;39.61;67.74;;
81493;Laerm;70900;51.798;10.954;2023-08-21T14:07:46;55.95;39.38;70.30;;
81493;Laerm;70900;51.798;10.954;2023-08-21T14:10:12;50.78;36.72;60.85;;
81493;Laerm;70900;51.798;10.954;2023-08-21T14:12:42;53.49;38.19;66.92;;
81493;Laerm;70900;51.798;10.954;2023-08-21T14:15:13;57.60;39.37;68.23;;
81493;Laerm;70900;51.798;10.954;2023-08-21T14:17:39;49.56;39.17;64.27;;
81493;Laerm;70900;51.798;10.954;2023-08-21T14:20:04;59.29;40.40;75.60;;
81493;Laerm;70900;51.798;10.954;2023-08-21T14:22:31;57.34;39.78;73.13;;
81493;Laerm;70900;51.798;10.954;2023-08-21T14:24:57;57.00;40.17;68.58;;
81493;Laerm;70900;51.798;10.954;2023-08-21T14:27:22;52.00;39.47;65.18;;
81493;Laerm;70900;51.798;10.954;2023-08-21T14:29:47;56.10;41.14;70.34;;
81493;Laerm;70900;51.798;10.954;2023-08-21T14:32:15;55.47;40.46;66.31;;
81493;Laerm;70900;51.798;10.954;2023-08-21T14:34:41;58.07;39.85;73.16;;
81493;Laerm;70900;51.798;10.954;2023-08-21T14:37:07;56.84;42.31;65.94;;
81493;Laerm;70900;51.798;10.954;2023-08-21T14:39:33;58.21;37.22;69.79;;
81493;Laerm;70900;51.798;10.954;2023-08-21T14:41:59;57.65;35.97;67.39;;
81493;Laerm;70900;51.798;10.954;2023-08-21T14:44:24;54.71;37.82;66.11;;
81493;Laerm;70900;51.798;10.954;2023-08-21T14:46:53;54.62;38.83;68.11;;
81493;Laerm;70900;51.798;10.954;2023-08-21T14:49:20;56.94;39.29;66.11;;
81493;Laerm;70900;51.798;10.954;2023-08-21T14:51:47;58.65;40.55;74.18;;
81493;Laerm;70900;51.798;10.954;2023-08-21T14:54:13;55.88;39.03;75.28;;